createdAt,value
2018-05-26T00:00:30.976Z,98241.33
2018-05-26T00:01:02.578Z,98235.37
2018-05-26T00:01:34.164Z,98240.48
2018-05-26T00:02:05.759Z,98239.63
2018-05-26T00:02:37.346Z,98240.48
2018-05-26T00:03:08.957Z,98243.03
2018-05-26T00:03:40.543Z,98246.03
2018-05-26T00:04:12.140Z,98244.33
2018-05-26T00:04:43.751Z,98239.63
2018-05-26T00:05:15.378Z,98244.76
2018-05-26T00:05:46.956Z,98244.77
2018-05-26T00:06:18.569Z,98245.18
2018-05-26T00:06:50.170Z,98243.06
2018-05-26T00:07:21.758Z,98243.91
2018-05-26T00:07:53.361Z,98241.41
2018-05-26T00:08:24.949Z,98244.40
2018-05-26T00:08:56.534Z,98243.91
2018-05-26T00:09:28.100Z,98244.33
2018-05-26T00:09:59.668Z,98243.48
2018-05-26T00:10:31.250Z,98244.33
2018-05-26T00:11:02.909Z,98248.61
2018-05-26T00:11:34.518Z,98241.41
2018-05-26T00:12:06.097Z,98247.75
2018-05-26T00:12:37.695Z,98249.88
2018-05-26T00:13:09.306Z,98248.19
2018-05-26T00:13:40.919Z,98250.30
2018-05-26T00:14:12.517Z,98243.11
2018-05-26T00:14:44.116Z,98248.61
2018-05-26T00:15:15.707Z,98252.88
2018-05-26T00:15:47.318Z,98244.34
2018-05-26T00:16:18.966Z,98254.20
2018-05-26T00:16:50.549Z,98246.91
2018-05-26T00:17:22.162Z,98251.17
2018-05-26T00:17:53.754Z,98245.63
2018-05-26T00:18:25.355Z,98249.94
2018-05-26T00:18:57.010Z,98251.17
2018-05-26T00:19:28.604Z,98247.33
2018-05-26T00:20:00.218Z,98247.75
2018-05-26T00:20:31.830Z,98246.05
2018-05-26T00:21:03.412Z,98251.17
2018-05-26T00:21:34.980Z,98246.91
2018-05-26T00:22:06.568Z,98246.47
2018-05-26T00:22:38.165Z,98250.31
2018-05-26T00:23:09.814Z,98246.46
2018-05-26T00:23:41.438Z,98247.31
2018-05-26T00:24:13.041Z,98245.61
2018-05-26T00:24:44.653Z,98245.61
2018-05-26T00:25:16.247Z,98248.16
2018-05-26T00:25:47.848Z,98248.97
2018-05-26T00:26:19.420Z,98250.67
2018-05-26T00:26:50.987Z,98243.41
2018-05-26T00:27:22.579Z,98248.11
2018-05-26T00:27:54.226Z,98248.11
2018-05-26T00:28:25.832Z,98241.70
2018-05-26T00:28:57.418Z,98246.83
2018-05-26T00:29:29.026Z,98245.19
2018-05-26T00:30:00.614Z,98241.77
2018-05-26T00:30:32.193Z,98242.20
2018-05-26T00:31:03.775Z,98242.19
2018-05-26T00:31:35.348Z,98244.32
2018-05-26T00:32:06.954Z,98244.76
2018-05-26T00:32:38.566Z,98249.88
2018-05-26T00:33:10.193Z,98247.31
2018-05-26T00:33:41.781Z,98240.50
2018-05-26T00:34:13.366Z,98249.94
2018-05-26T00:34:44.955Z,98246.53
2018-05-26T00:35:16.552Z,98242.25
2018-05-26T00:35:48.139Z,98245.68
2018-05-26T00:36:19.761Z,98226.31
2018-05-26T00:36:51.365Z,98244.83
2018-05-26T00:37:22.954Z,98249.53
2018-05-26T00:37:54.554Z,98246.55
2018-05-26T00:38:26.165Z,98244.45
2018-05-26T00:38:57.765Z,98245.73
2018-05-26T00:39:29.350Z,98242.75
2018-05-26T00:40:00.934Z,98239.77
2018-05-26T00:40:32.518Z,98243.62
2018-05-26T00:41:04.102Z,98244.04
2018-05-26T00:41:35.745Z,98244.90
2018-05-26T00:42:07.344Z,98245.75
2018-05-26T00:42:38.920Z,98245.33
2018-05-26T00:43:10.500Z,98244.05
2018-05-26T00:43:42.106Z,98249.61
2018-05-26T00:44:13.736Z,98247.47
2018-05-26T00:44:45.348Z,98243.20
2018-05-26T00:45:17.030Z,98253.45
2018-05-26T00:45:48.633Z,98248.80
2018-05-26T00:46:20.229Z,98251.35
2018-05-26T00:46:51.894Z,98252.17
2018-05-26T00:47:23.465Z,98255.59
2018-05-26T00:47:55.056Z,98256.87
2018-05-26T00:48:26.641Z,98251.35
2018-05-26T00:48:58.278Z,98256.05
2018-05-26T00:49:29.920Z,98251.35
2018-05-26T00:50:01.526Z,98256.06
2018-05-26T00:50:33.113Z,98250.51
2018-05-26T00:51:04.697Z,98253.92
2018-05-26T00:51:36.306Z,98255.64
2018-05-26T00:52:07.913Z,98256.92
2018-05-26T00:52:39.492Z,98252.65
2018-05-26T00:53:11.098Z,98253.94
2018-05-26T00:53:42.754Z,98258.20
2018-05-26T00:54:14.331Z,98256.50
2018-05-26T00:54:45.908Z,98258.63
2018-05-26T00:55:17.565Z,98259.89
2018-05-26T00:55:49.174Z,98262.03
2018-05-26T00:56:20.762Z,98257.34
2018-05-26T00:56:52.338Z,98255.20
2018-05-26T00:57:23.918Z,98258.20
2018-05-26T00:57:55.509Z,98256.91
2018-05-26T00:58:27.118Z,98253.92
2018-05-26T00:58:58.692Z,98257.77
2018-05-26T00:59:30.288Z,98245.59
2018-05-26T01:00:01.871Z,98255.70
2018-05-26T01:00:34.292Z,98258.20
2018-05-26T01:01:05.877Z,98255.64
2018-05-26T01:01:37.789Z,98260.77
2018-05-26T01:02:09.368Z,98259.91
2018-05-26T01:02:40.960Z,98260.35
2018-05-26T01:03:12.533Z,98260.34
2018-05-26T01:03:44.142Z,98262.48
2018-05-26T01:04:15.762Z,98259.06
2018-05-26T01:04:47.351Z,98262.52
2018-05-26T01:05:18.954Z,98265.08
2018-05-26T01:05:50.604Z,98259.53
2018-05-26T01:06:22.214Z,98261.67
2018-05-26T01:06:53.792Z,98265.94
2018-05-26T01:07:25.394Z,98261.20
2018-05-26T01:07:57.002Z,98261.19
2018-05-26T01:08:28.594Z,98260.77
2018-05-26T01:09:00.178Z,98253.07
2018-05-26T01:09:31.785Z,98261.55
2018-05-26T01:10:03.398Z,98266.25
2018-05-26T01:10:35.011Z,98263.27
2018-05-26T01:11:06.638Z,98264.17
2018-05-26T01:11:38.232Z,98261.13
2018-05-26T01:12:09.818Z,98261.97
2018-05-26T01:12:41.392Z,98268.38
2018-05-26T01:13:12.985Z,98265.81
2018-05-26T01:13:44.660Z,98263.69
2018-05-26T01:14:16.242Z,98268.38
2018-05-26T01:14:47.845Z,98264.53
2018-05-26T01:15:19.441Z,98266.66
2018-05-26T01:15:51.052Z,98266.23
2018-05-26T01:16:22.664Z,98263.67
2018-05-26T01:16:54.232Z,98264.95
2018-05-26T01:17:25.842Z,98263.25
2018-05-26T01:17:57.441Z,98264.53
2018-05-26T01:18:29.026Z,98266.25
2018-05-26T01:19:00.606Z,98264.95
2018-05-26T01:19:32.209Z,98267.09
2018-05-26T01:20:03.794Z,98267.94
2018-05-26T01:20:35.374Z,98266.66
2018-05-26T01:21:07.018Z,98267.50
2018-05-26T01:21:38.630Z,98264.52
2018-05-26T01:22:10.236Z,98268.80
2018-05-26T01:22:41.933Z,98269.66
2018-05-26T01:23:13.532Z,98263.25
2018-05-26T01:23:45.104Z,98257.70
2018-05-26T01:24:16.706Z,98265.39
2018-05-26T01:24:48.308Z,98260.27
2018-05-26T01:25:19.949Z,98262.41
2018-05-26T01:25:51.553Z,98263.70
2018-05-26T01:26:23.149Z,98261.98
2018-05-26T01:26:54.720Z,98261.17
2018-05-26T01:27:26.298Z,98261.60
2018-05-26T01:27:57.902Z,98262.41
2018-05-26T01:28:29.490Z,98253.50
2018-05-26T01:29:01.094Z,98254.77
2018-05-26T01:29:32.792Z,98259.85
2018-05-26T01:30:04.413Z,98260.71
2018-05-26T01:30:35.988Z,98262.45
2018-05-26T01:31:07.597Z,98268.02
2018-05-26T01:31:39.176Z,98259.05
2018-05-26T01:32:10.767Z,98266.73
2018-05-26T01:32:42.343Z,98263.31
2018-05-26T01:33:13.913Z,98266.74
2018-05-26T01:33:45.490Z,98265.04
2018-05-26T01:34:17.120Z,98264.19
2018-05-26T01:34:48.726Z,98264.61
2018-05-26T01:35:20.348Z,98268.02
2018-05-26T01:35:51.930Z,98268.88
2018-05-26T01:36:23.500Z,98263.33
2018-05-26T01:36:55.096Z,98264.18
2018-05-26T01:37:26.685Z,98265.89
2018-05-26T01:37:58.299Z,98265.89
2018-05-26T01:38:29.882Z,98267.16
2018-05-26T01:39:01.466Z,98263.33
2018-05-26T01:39:33.032Z,98259.06
2018-05-26T01:40:04.644Z,98265.04
2018-05-26T01:40:36.245Z,98264.19
2018-05-26T01:41:07.850Z,98259.91
2018-05-26T01:41:39.461Z,98265.04
2018-05-26T01:42:11.061Z,98268.88
2018-05-26T01:42:42.649Z,98263.83
2018-05-26T01:43:14.253Z,98268.88
2018-05-26T01:43:45.827Z,98268.45
2018-05-26T01:44:17.410Z,98265.89
2018-05-26T01:44:49.018Z,98268.03
2018-05-26T01:45:20.667Z,98269.73
2018-05-26T01:45:52.264Z,98269.31
2018-05-26T01:46:23.874Z,98270.16
2018-05-26T01:46:55.483Z,98270.16
2018-05-26T01:47:27.070Z,98265.52
2018-05-26T01:47:58.640Z,98262.95
2018-05-26T01:48:30.246Z,98267.64
2018-05-26T01:49:01.841Z,98271.48
2018-05-26T01:49:33.430Z,98269.31
2018-05-26T01:50:05.035Z,98273.16
2018-05-26T01:50:36.657Z,98268.92
2018-05-26T01:51:08.236Z,98269.78
2018-05-26T01:51:39.818Z,98264.67
2018-05-26T01:52:11.388Z,98264.25
2018-05-26T01:52:42.991Z,98264.66
2018-05-26T01:53:14.574Z,98271.92
2018-05-26T01:53:46.158Z,98264.62
2018-05-26T01:54:17.761Z,98264.66
2018-05-26T01:54:49.350Z,98267.22
2018-05-26T01:55:20.930Z,98266.36
2018-05-26T01:55:52.556Z,98271.87
2018-05-26T01:56:24.139Z,98265.08
2018-05-26T01:56:55.741Z,98271.02
2018-05-26T01:57:27.316Z,98262.05
2018-05-26T01:57:58.915Z,98270.58
2018-05-26T01:58:30.522Z,98264.62
2018-05-26T01:59:02.125Z,98266.31
2018-05-26T01:59:33.725Z,98265.89
2018-05-26T02:00:05.334Z,98260.77
2018-05-26T02:00:36.966Z,98270.59
2018-05-26T02:01:08.550Z,98271.02
2018-05-26T02:01:40.159Z,98269.30
2018-05-26T02:02:11.778Z,98267.60
2018-05-26T02:02:43.389Z,98269.30
2018-05-26T02:03:14.964Z,98264.61
2018-05-26T02:03:46.536Z,98262.89
2018-05-26T02:04:18.120Z,98266.73
2018-05-26T02:04:49.746Z,98264.23
2018-05-26T02:05:21.317Z,98260.77
2018-05-26T02:05:52.920Z,98259.91
2018-05-26T02:06:24.503Z,98260.34
2018-05-26T02:06:56.085Z,98264.59
2018-05-26T02:07:27.675Z,98267.11
2018-05-26T02:07:59.286Z,98260.75
2018-05-26T02:08:30.898Z,98263.73
2018-05-26T02:09:02.532Z,98256.92
2018-05-26T02:09:34.126Z,98259.42
2018-05-26T02:10:05.697Z,98261.11
2018-05-26T02:10:37.302Z,98265.81
2018-05-26T02:11:08.914Z,98258.97
2018-05-26T02:11:40.488Z,98256.37
2018-05-26T02:12:12.073Z,98255.94
2018-05-26T02:12:43.660Z,98257.64
2018-05-26T02:13:15.247Z,98261.03
2018-05-26T02:13:46.858Z,98253.35
2018-05-26T02:14:18.486Z,98255.86
2018-05-26T02:14:50.070Z,98257.55
2018-05-26T02:15:21.669Z,98255.80
2018-05-26T02:15:53.254Z,98254.09
2018-05-26T02:16:24.838Z,98249.80
2018-05-26T02:16:56.428Z,98252.31
2018-05-26T02:17:28.038Z,98254.43
2018-05-26T02:17:59.622Z,98252.29
2018-05-26T02:18:31.230Z,98244.59
2018-05-26T02:19:02.838Z,98251.02
2018-05-26T02:19:34.463Z,98250.09
2018-05-26T02:20:06.047Z,98254.70
2018-05-26T02:20:37.617Z,98251.71
2018-05-26T02:21:09.202Z,98254.22
2018-05-26T02:21:40.796Z,98255.48
2018-05-26T02:22:12.380Z,98256.72
2018-05-26T02:22:43.966Z,98252.44
2018-05-26T02:23:15.546Z,98257.12
2018-05-26T02:23:47.139Z,98253.27
2018-05-26T02:24:18.774Z,98254.94
2018-05-26T02:24:50.402Z,98248.93
2018-05-26T02:25:22.006Z,98251.48
2018-05-26T02:25:53.594Z,98244.25
2018-05-26T02:26:25.178Z,98251.57
2018-05-26T02:26:56.748Z,98250.23
2018-05-26T02:27:28.316Z,98259.20
2018-05-26T02:27:59.898Z,98258.77
2018-05-26T02:28:31.464Z,98256.56
2018-05-26T02:29:03.046Z,98256.50
2018-05-26T02:29:34.630Z,98262.55
2018-05-26T02:30:06.214Z,98258.27
2018-05-26T02:30:37.835Z,98259.55
2018-05-26T02:31:09.415Z,98256.57
2018-05-26T02:31:41.008Z,98262.55
2018-05-26T02:32:12.605Z,98266.44
2018-05-26T02:32:44.185Z,98260.41
2018-05-26T02:33:15.752Z,98257.47
2018-05-26T02:33:47.320Z,98263.41
2018-05-26T02:34:18.907Z,98255.80
2018-05-26T02:34:50.525Z,98257.94
2018-05-26T02:35:22.101Z,98256.70
2018-05-26T02:35:53.704Z,98253.27
2018-05-26T02:36:25.291Z,98257.08
2018-05-26T02:36:56.906Z,98251.53
2018-05-26T02:37:28.491Z,98258.78
2018-05-26T02:38:00.085Z,98259.63
2018-05-26T02:38:31.673Z,98256.23
2018-05-26T02:39:03.257Z,98257.56
2018-05-26T02:39:34.862Z,98254.22
2018-05-26T02:40:06.450Z,98256.77
2018-05-26T02:40:38.069Z,98255.50
2018-05-26T02:41:09.687Z,98258.06
2018-05-26T02:41:41.352Z,98255.09
2018-05-26T02:42:12.957Z,98252.57
2018-05-26T02:42:44.542Z,98252.64
2018-05-26T02:43:16.137Z,98258.58
2018-05-26T02:43:47.722Z,98259.00
2018-05-26T02:44:19.302Z,98254.78
2018-05-26T02:44:50.891Z,98260.33
2018-05-26T02:45:22.494Z,98256.06
2018-05-26T02:45:54.110Z,98254.36
2018-05-26T02:46:25.728Z,98259.92
2018-05-26T02:46:57.300Z,98256.98
2018-05-26T02:47:28.919Z,98255.66
2018-05-26T02:48:00.519Z,98255.70
2018-05-26T02:48:32.092Z,98259.54
2018-05-26T02:49:03.694Z,98259.55
2018-05-26T02:49:35.278Z,98258.70
2018-05-26T02:50:06.882Z,98254.86
2018-05-26T02:50:38.485Z,98257.40
2018-05-26T02:51:10.122Z,98258.26
2018-05-26T02:51:41.706Z,98261.69
2018-05-26T02:52:13.310Z,98256.16
2018-05-26T02:52:44.885Z,98258.72
2018-05-26T02:53:16.476Z,98263.41
2018-05-26T02:53:48.077Z,98260.86
2018-05-26T02:54:19.672Z,98257.02
2018-05-26T02:54:51.272Z,98262.97
2018-05-26T02:55:22.857Z,98262.55
2018-05-26T02:55:54.462Z,98268.11
2018-05-26T02:56:26.096Z,98257.90
2018-05-26T02:56:57.755Z,98262.98
2018-05-26T02:57:29.390Z,98264.30
2018-05-26T02:58:00.998Z,98266.44
2018-05-26T02:58:32.606Z,98265.17
2018-05-26T02:59:04.194Z,98256.20
2018-05-26T02:59:35.791Z,98263.91
2018-05-26T03:00:07.401Z,98264.77
2018-05-26T03:00:38.996Z,98266.89
2018-05-26T03:01:10.582Z,98263.48
2018-05-26T03:01:42.161Z,98259.69
2018-05-26T03:02:13.753Z,98262.63
2018-05-26T03:02:45.363Z,98265.19
2018-05-26T03:03:16.950Z,98266.05
2018-05-26T03:03:48.052Z,98263.48
2018-05-26T03:04:25.315Z,98267.32
2018-05-26T03:05:02.562Z,98265.62
2018-05-26T03:05:39.810Z,98266.47
2018-05-26T03:06:17.058Z,98266.48
2018-05-26T03:06:54.296Z,98264.80
2018-05-26T03:07:31.612Z,98265.19
2018-05-26T03:08:08.882Z,98267.31
2018-05-26T03:08:46.154Z,98265.61
2018-05-26T03:09:23.540Z,98271.59
2018-05-26T03:10:00.954Z,98269.45
2018-05-26T03:10:38.204Z,98272.44
2018-05-26T03:11:15.442Z,98271.16
2018-05-26T03:11:52.842Z,98275.00
2018-05-26T03:12:30.228Z,98269.45
2018-05-26T03:13:07.563Z,98268.18
2018-05-26T03:13:44.814Z,98274.16
2018-05-26T03:14:22.072Z,98269.88
2018-05-26T03:14:53.221Z,98266.48
2018-05-26T03:15:24.330Z,98268.18
2018-05-26T03:16:01.606Z,98266.89
2018-05-26T03:16:36.686Z,98270.31
2018-05-26T03:17:09.268Z,98277.99
2018-05-26T03:17:46.711Z,98276.29
2018-05-26T03:18:18.371Z,98272.02
2018-05-26T03:18:49.982Z,98275.92
2018-05-26T03:19:21.590Z,98270.80
2018-05-26T03:19:53.183Z,98276.77
2018-05-26T03:20:24.828Z,98270.36
2018-05-26T03:20:56.396Z,98278.48
2018-05-26T03:21:27.997Z,98276.34
2018-05-26T03:21:59.583Z,98278.48
2018-05-26T03:22:31.186Z,98275.14
2018-05-26T03:23:02.769Z,98279.34
2018-05-26T03:23:34.416Z,98279.81
2018-05-26T03:24:05.996Z,98280.62
2018-05-26T03:24:37.588Z,98274.22
2018-05-26T03:25:09.169Z,98281.04
2018-05-26T03:25:40.773Z,98282.76
2018-05-26T03:26:12.349Z,98281.89
2018-05-26T03:26:43.928Z,98272.98
2018-05-26T03:27:15.530Z,98281.09
2018-05-26T03:27:47.104Z,98283.61
2018-05-26T03:28:18.699Z,98278.92
2018-05-26T03:28:50.361Z,98284.05
2018-05-26T03:29:21.971Z,98283.66
2018-05-26T03:29:53.575Z,98285.75
2018-05-26T03:30:25.158Z,98280.20
2018-05-26T03:30:56.752Z,98283.19
2018-05-26T03:31:28.334Z,98284.03
2018-05-26T03:31:59.960Z,98287.45
2018-05-26T03:32:31.546Z,98286.61
2018-05-26T03:33:03.153Z,98281.53
2018-05-26T03:33:34.732Z,98287.45
2018-05-26T03:34:06.338Z,98286.22
2018-05-26T03:34:37.921Z,98285.33
2018-05-26T03:35:09.530Z,98285.37
2018-05-26T03:35:41.137Z,98283.66
2018-05-26T03:36:12.721Z,98280.67
2018-05-26T03:36:44.335Z,98280.20
2018-05-26T03:37:15.921Z,98281.09
2018-05-26T03:37:47.488Z,98275.55
2018-05-26T03:38:19.090Z,98282.33
2018-05-26T03:38:50.697Z,98279.34
2018-05-26T03:39:22.325Z,98278.55
2018-05-26T03:39:53.948Z,98280.63
2018-05-26T03:40:25.559Z,98280.67
2018-05-26T03:40:57.146Z,98284.05
2018-05-26T03:41:28.750Z,98284.03
2018-05-26T03:42:00.334Z,98278.53
2018-05-26T03:42:31.918Z,98277.64
2018-05-26T03:43:03.523Z,98289.14
2018-05-26T03:43:35.120Z,98283.59
2018-05-26T03:44:06.734Z,98285.30
2018-05-26T03:44:38.326Z,98292.93
2018-05-26T03:45:09.901Z,98287.36
2018-05-26T03:45:41.486Z,98286.46
2018-05-26T03:46:13.090Z,98282.62
2018-05-26T03:46:44.678Z,98287.73
2018-05-26T03:47:16.261Z,98285.16
2018-05-26T03:47:47.828Z,98290.28
2018-05-26T03:48:19.413Z,98286.81
2018-05-26T03:48:50.984Z,98285.58
2018-05-26T03:49:22.593Z,98286.81
2018-05-26T03:49:54.164Z,98290.60
2018-05-26T03:50:25.808Z,98295.29
2018-05-26T03:50:57.413Z,98291.44
2018-05-26T03:51:29.021Z,98295.70
2018-05-26T03:52:00.611Z,98287.96
2018-05-26T03:52:32.184Z,98292.16
2018-05-26T03:53:03.786Z,98295.08
2018-05-26T03:53:35.375Z,98293.34
2018-05-26T03:54:06.982Z,98295.41
2018-05-26T03:54:38.581Z,98292.38
2018-05-26T03:55:10.171Z,98294.91
2018-05-26T03:55:41.811Z,98302.55
2018-05-26T03:56:13.398Z,98301.25
2018-05-26T03:56:44.991Z,98297.78
2018-05-26T03:57:16.608Z,98294.35
2018-05-26T03:57:48.194Z,98298.19
2018-05-26T03:58:19.764Z,98304.12
2018-05-26T03:58:51.350Z,98296.86
2018-05-26T03:59:22.930Z,98302.83
2018-05-26T03:59:54.510Z,98302.77
2018-05-26T04:00:26.158Z,98297.28
2018-05-26T04:00:57.746Z,98299.34
2018-05-26T04:01:29.326Z,98299.77
2018-05-26T04:02:00.906Z,98298.48
2018-05-26T04:02:32.494Z,98298.48
2018-05-26T04:03:04.108Z,98297.98
2018-05-26T04:03:35.684Z,98295.44
2018-05-26T04:04:07.266Z,98296.27
2018-05-26T04:04:38.870Z,98298.84
2018-05-26T04:05:10.502Z,98295.86
2018-05-26T04:05:42.085Z,98297.12
2018-05-26T04:06:13.652Z,98299.20
2018-05-26T04:06:45.282Z,98300.04
2018-05-26T04:07:16.861Z,98303.03
2018-05-26T04:07:48.470Z,98293.55
2018-05-26T04:08:20.058Z,98300.69
2018-05-26T04:08:51.642Z,98300.91
2018-05-26T04:09:23.231Z,98299.31
2018-05-26T04:09:54.828Z,98297.60
2018-05-26T04:10:26.413Z,98298.11
2018-05-26T04:10:58.024Z,98298.92
2018-05-26T04:11:29.605Z,98300.68
2018-05-26T04:12:01.190Z,98303.20
2018-05-26T04:12:32.783Z,98301.99
2018-05-26T04:13:04.464Z,98302.50
2018-05-26T04:13:36.058Z,98305.12
2018-05-26T04:14:07.646Z,98304.39
2018-05-26T04:14:39.240Z,98307.17
2018-05-26T04:15:10.854Z,98312.12
2018-05-26T04:15:42.509Z,98309.84
2018-05-26T04:16:14.121Z,98302.41
2018-05-26T04:16:45.710Z,98308.23
2018-05-26T04:17:17.304Z,98311.02
2018-05-26T04:17:48.894Z,98307.33
2018-05-26T04:18:20.476Z,98312.16
2018-05-26T04:18:52.072Z,98310.61
2018-05-26T04:19:23.690Z,98313.59
2018-05-26T04:19:55.301Z,98310.28
2018-05-26T04:20:26.909Z,98312.89
2018-05-26T04:20:58.559Z,98311.63
2018-05-26T04:21:30.169Z,98312.58
2018-05-26T04:22:01.818Z,98309.77
2018-05-26T04:22:33.405Z,98302.98
2018-05-26T04:23:05.010Z,98310.56
2018-05-26T04:23:36.622Z,98310.19
2018-05-26T04:24:08.197Z,98306.33
2018-05-26T04:24:39.790Z,98307.63
2018-05-26T04:25:11.364Z,98309.45
2018-05-26T04:25:42.970Z,98308.33
2018-05-26T04:26:14.592Z,98309.67
2018-05-26T04:26:46.167Z,98308.23
2018-05-26T04:27:17.778Z,98306.97
2018-05-26T04:27:49.362Z,98310.91
2018-05-26T04:28:20.970Z,98308.83
2018-05-26T04:28:52.556Z,98305.08
2018-05-26T04:29:24.170Z,98313.59
2018-05-26T04:29:55.766Z,98308.83
2018-05-26T04:30:27.338Z,98314.27
2018-05-26T04:30:58.924Z,98315.02
2018-05-26T04:31:30.565Z,98318.73
2018-05-26T04:32:02.170Z,98309.08
2018-05-26T04:32:33.772Z,98318.69
2018-05-26T04:33:05.358Z,98316.26
2018-05-26T04:33:36.943Z,98312.36
2018-05-26T04:34:08.526Z,98317.12
2018-05-26T04:34:40.111Z,98319.03
2018-05-26T04:35:11.722Z,98316.70
2018-05-26T04:35:43.305Z,98316.84
2018-05-26T04:36:14.886Z,98317.15
2018-05-26T04:36:46.501Z,98317.78
2018-05-26T04:37:18.150Z,98314.59
2018-05-26T04:37:49.765Z,98315.63
2018-05-26T04:38:21.384Z,98316.86
2018-05-26T04:38:52.959Z,98315.22
2018-05-26T04:39:24.566Z,98315.41
2018-05-26T04:39:56.140Z,98316.66
2018-05-26T04:40:27.732Z,98318.55
2018-05-26T04:40:59.322Z,98309.53
2018-05-26T04:41:30.919Z,98319.52
2018-05-26T04:42:02.573Z,98322.64
2018-05-26T04:42:34.172Z,98320.35
2018-05-26T04:43:05.783Z,98318.43
2018-05-26T04:43:37.374Z,98318.58
2018-05-26T04:44:08.962Z,98310.99
2018-05-26T04:44:40.546Z,98319.67
2018-05-26T04:45:12.150Z,98315.25
2018-05-26T04:45:43.757Z,98316.13
2018-05-26T04:46:15.337Z,98313.30
2018-05-26T04:46:46.946Z,98322.50
2018-05-26T04:47:18.578Z,98319.16
2018-05-26T04:47:50.171Z,98317.17
2018-05-26T04:48:21.833Z,98318.77
2018-05-26T04:48:53.430Z,98320.39
2018-05-26T04:49:25.035Z,98320.34
2018-05-26T04:49:56.629Z,98320.55
2018-05-26T04:50:28.214Z,98316.13
2018-05-26T04:50:59.793Z,98321.36
2018-05-26T04:51:31.374Z,98321.08
2018-05-26T04:52:02.981Z,98321.29
2018-05-26T04:52:34.581Z,98321.91
2018-05-26T04:53:06.156Z,98322.63
2018-05-26T04:53:37.834Z,98327.23
2018-05-26T04:54:09.426Z,98319.00
2018-05-26T04:54:41.039Z,98319.19
2018-05-26T04:55:12.654Z,98315.69
2018-05-26T04:55:44.227Z,98318.48
2018-05-26T04:56:15.838Z,98324.33
2018-05-26T04:56:47.436Z,98311.75
2018-05-26T04:57:19.050Z,98320.22
2018-05-26T04:57:50.641Z,98321.20
2018-05-26T04:58:22.222Z,98311.95
2018-05-26T04:58:53.860Z,98318.53
2018-05-26T04:59:25.475Z,98324.58
2018-05-26T04:59:57.087Z,98313.70
2018-05-26T05:00:28.664Z,98320.27
2018-05-26T05:01:00.242Z,98317.80
2018-05-26T05:01:31.826Z,98325.56
2018-05-26T05:02:03.434Z,98322.30
2018-05-26T05:02:35.026Z,98313.74
2018-05-26T05:03:06.634Z,98321.03
2018-05-26T05:03:38.217Z,98325.79
2018-05-26T05:04:09.828Z,98325.88
2018-05-26T05:04:41.474Z,98326.38
2018-05-26T05:05:13.062Z,98311.66
2018-05-26T05:05:44.682Z,98321.34
2018-05-26T05:06:16.238Z,98321.84
2018-05-26T05:06:47.842Z,98321.84
2018-05-26T05:07:19.417Z,98328.33
2018-05-26T05:07:50.989Z,98323.68
2018-05-26T05:08:22.574Z,98329.27
2018-05-26T05:08:54.181Z,98321.63
2018-05-26T05:09:25.793Z,98325.42
2018-05-26T05:09:57.398Z,98328.03
2018-05-26T05:10:28.988Z,98328.05
2018-05-26T05:11:00.594Z,98323.78
2018-05-26T05:11:32.178Z,98323.41
2018-05-26T05:12:03.782Z,98328.53
2018-05-26T05:12:35.377Z,98329.41
2018-05-26T05:13:06.991Z,98325.18
2018-05-26T05:13:38.605Z,98330.75
2018-05-26T05:14:10.190Z,98321.44
2018-05-26T05:14:41.789Z,98332.10
2018-05-26T05:15:13.374Z,98329.17
2018-05-26T05:15:45.006Z,98329.61
2018-05-26T05:16:16.610Z,98328.34
2018-05-26T05:16:48.194Z,98329.66
2018-05-26T05:17:19.797Z,98327.09
2018-05-26T05:17:51.482Z,98327.95
2018-05-26T05:18:23.071Z,98332.23
2018-05-26T05:18:54.678Z,98325.81
2018-05-26T05:19:26.266Z,98330.52
2018-05-26T05:19:57.894Z,98327.53
2018-05-26T05:20:29.497Z,98327.59
2018-05-26T05:21:01.082Z,98328.02
2018-05-26T05:21:32.686Z,98329.73
2018-05-26T05:22:04.278Z,98328.02
2018-05-26T05:22:35.881Z,98328.02
2018-05-26T05:23:07.485Z,98330.60
2018-05-26T05:23:39.066Z,98329.31
2018-05-26T05:24:10.730Z,98328.50
2018-05-26T05:24:42.365Z,98328.08
2018-05-26T05:25:13.994Z,98326.38
2018-05-26T05:25:45.569Z,98331.09
2018-05-26T05:26:17.163Z,98332.80
2018-05-26T05:26:48.799Z,98335.80
2018-05-26T05:27:20.346Z,98329.38
2018-05-26T05:27:51.930Z,98333.64
2018-05-26T05:28:23.513Z,98330.66
2018-05-26T05:28:55.084Z,98330.23
2018-05-26T05:29:26.685Z,98333.20
2018-05-26T05:29:58.293Z,98326.82
2018-05-26T05:30:29.904Z,98328.96
2018-05-26T05:31:01.473Z,98329.80
2018-05-26T05:31:33.058Z,98333.23
2018-05-26T05:32:04.636Z,98329.39
2018-05-26T05:32:36.249Z,98325.53
2018-05-26T05:33:07.855Z,98330.22
2018-05-26T05:33:39.448Z,98328.86
2018-05-26T05:34:11.052Z,98328.03
2018-05-26T05:34:42.632Z,98331.94
2018-05-26T05:35:14.266Z,98331.52
2018-05-26T05:35:45.846Z,98329.86
2018-05-26T05:36:17.454Z,98334.14
2018-05-26T05:36:49.056Z,98331.59
2018-05-26T05:37:20.651Z,98331.58
2018-05-26T05:37:52.242Z,98329.88
2018-05-26T05:38:23.853Z,98330.38
2018-05-26T05:38:55.494Z,98335.45
2018-05-26T05:39:27.102Z,98328.61
2018-05-26T05:39:58.685Z,98335.06
2018-05-26T05:40:30.269Z,98332.50
2018-05-26T05:41:01.866Z,98330.80
2018-05-26T05:41:33.455Z,98335.08
2018-05-26T05:42:05.061Z,98337.22
2018-05-26T05:42:36.634Z,98338.98
2018-05-26T05:43:08.214Z,98333.42
2018-05-26T05:43:39.817Z,98335.56
2018-05-26T05:44:11.430Z,98334.72
2018-05-26T05:44:43.029Z,98334.73
2018-05-26T05:45:14.634Z,98336.02
2018-05-26T05:45:46.218Z,98339.86
2018-05-26T05:46:17.791Z,98347.98
2018-05-26T05:46:49.393Z,98339.91
2018-05-26T05:47:20.973Z,98331.37
2018-05-26T05:47:52.554Z,98341.18
2018-05-26T05:48:24.134Z,98342.85
2018-05-26T05:48:55.752Z,98342.04
2018-05-26T05:49:27.358Z,98342.85
2018-05-26T05:49:58.965Z,98339.91
2018-05-26T05:50:30.536Z,98339.91
2018-05-26T05:51:02.122Z,98339.48
2018-05-26T05:51:33.703Z,98345.47
2018-05-26T05:52:05.269Z,98340.78
2018-05-26T05:52:36.854Z,98341.63
2018-05-26T05:53:08.442Z,98343.77
2018-05-26T05:53:40.037Z,98352.30
2018-05-26T05:54:11.646Z,98347.61
2018-05-26T05:54:43.241Z,98341.64
2018-05-26T05:55:14.853Z,98348.47
2018-05-26T05:55:46.438Z,98349.75
2018-05-26T05:56:18.081Z,98345.47
2018-05-26T05:56:49.670Z,98350.65
2018-05-26T05:57:21.277Z,98345.52
2018-05-26T05:57:52.865Z,98346.81
2018-05-26T05:58:24.434Z,98347.63
2018-05-26T05:58:56.012Z,98345.11
2018-05-26T05:59:27.644Z,98348.48
2018-05-26T05:59:59.248Z,98344.68
2018-05-26T06:00:30.849Z,98351.51
2018-05-26T06:01:02.449Z,98349.38
2018-05-26T06:01:40.154Z,98351.93
2018-05-26T06:02:11.763Z,98357.49
2018-05-26T06:02:43.369Z,98352.32
2018-05-26T06:03:14.975Z,98357.06
2018-05-26T06:03:46.561Z,98347.23
2018-05-26T06:04:18.169Z,98349.80
2018-05-26T06:04:49.850Z,98352.79
2018-05-26T06:05:21.424Z,98347.73
2018-05-26T06:05:53.030Z,98357.50
2018-05-26T06:06:24.614Z,98355.37
2018-05-26T06:06:56.198Z,98355.37
2018-05-26T06:07:27.799Z,98354.51
2018-05-26T06:07:59.409Z,98355.78
2018-05-26T06:08:31.004Z,98360.92
2018-05-26T06:09:02.591Z,98355.78
2018-05-26T06:09:34.198Z,98360.05
2018-05-26T06:10:05.840Z,98358.34
2018-05-26T06:10:37.412Z,98355.78
2018-05-26T06:11:09.087Z,98351.52
2018-05-26T06:11:40.698Z,98357.49
2018-05-26T06:12:12.301Z,98352.81
2018-05-26T06:12:43.911Z,98353.23
2018-05-26T06:13:15.498Z,98345.63